Time,TemperatureF,DewpointF,PressureIn,WindDirection,WindDirectionDegrees,WindSpeedMPH,WindSpeedGustMPH,Humidity,HourlyPrecipIn,Conditions,Clouds,dailyrainin,SoftwareType,DateUTC
2013-05-11 00:01:00,44.6,43.8,29.91,WNW,299,0.0,2.0,97,0.00,,,0.00,VWS V14.01,2013-05-11 04:01:00,
2013-05-11 00:06:00,44.6,43.8,29.91,NW,311,0.0,2.0,97,0.00,,,0.00,VWS V14.01,2013-05-11 04:06:00,
2013-05-11 00:11:00,44.6,43.8,29.91,NW,310,0.0,1.0,97,0.00,,,0.00,VWS V14.01,2013-05-11 04:11:00,
2013-05-11 00:16:00,44.6,43.8,29.91,NW,310,0.0,1.0,97,0.00,,,0.00,VWS V14.01,2013-05-11 04:16:00,
2013-05-11 00:21:00,44.7,43.9,29.91,West,269,3.0,3.0,97,0.00,,,0.00,VWS V14.01,2013-05-11 04:21:00,
2013-05-11 00:26:00,44.6,43.8,29.91,WNW,291,0.0,3.0,97,0.00,,,0.00,VWS V14.01,2013-05-11 04:26:00,
2013-05-11 00:31:00,44.6,44.1,29.91,NNE,20,0.0,3.0,98,0.00,,,0.00,VWS V14.01,2013-05-11 04:31:00,
2013-05-11 00:36:00,44.7,43.9,29.91,NNE,32,0.0,3.0,97,0.00,,,0.00,VWS V14.01,2013-05-11 04:36:00,
2013-05-11 00:41:00,44.7,44.2,29.91,NNE,30,0.0,3.0,98,0.00,,,0.00,VWS V14.01,2013-05-11 04:41:00,
2013-05-11 00:46:00,44.7,44.2,29.91,WNW,294,0.0,2.0,98,0.00,,,0.00,VWS V14.01,2013-05-11 04:46:00,
2013-05-11 00:51:00,44.7,44.2,29.91,NNW,341,0.0,2.0,98,0.00,,,0.00,VWS V14.01,2013-05-11 04:51:00,
2013-05-11 00:56:00,44.7,43.9,29.91,WNW,282,0.0,2.0,97,0.00,,,0.00,VWS V14.01,2013-05-11 04:56:00,
2013-05-11 01:01:00,44.6,44.1,29.91,WNW,282,0.0,2.0,98,0.00,,,0.00,VWS V14.01,2013-05-11 05:01:00,
2013-05-11 01:06:00,44.6,44.1,29.91,WNW,284,0.0,2.0,98,0.00,,,0.00,VWS V14.01,2013-05-11 05:06:00,
2013-05-11 01:11:00,44.6,44.1,29.91,West,279,0.0,2.0,98,0.00,,,0.00,VWS V14.01,2013-05-11 05:11:00,
2013-05-11 01:16:00,44.7,44.2,29.91,West,279,0.0,2.0,98,0.00,,,0.00,VWS V14.01,2013-05-11 05:16:00,
2013-05-11 01:21:00,44.7,44.2,29.91,West,279,0.0,2.0,98,0.00,,,0.00,VWS V14.01,2013-05-11 05:21:00,
2013-05-11 01:26:00,44.7,44.2,29.91,West,279,0.0,0.0,98,0.00,,,0.00,VWS V14.01,2013-05-11 05:26:00,
2013-05-11 01:31:00,44.7,44.2,29.90,West,279,0.0,1.0,98,0.00,,,0.00,VWS V14.01,2013-05-11 05:31:00,
2013-05-11 01:36:00,44.7,44.2,29.91,West,279,0.0,1.0,98,0.00,,,0.00,VWS V14.01,2013-05-11 05:36:00,
2013-05-11 01:40:00,44.8,44.3,29.91,West,279,0.0,0.0,98,0.00,,,0.00,VWS V14.01,2013-05-11 05:40:00,
2013-05-11 01:45:00,44.8,44.3,29.91,West,278,0.0,1.0,98,0.00,,,0.00,VWS V14.01,2013-05-11 05:45:00,
2013-05-11 01:50:00,44.8,44.3,29.91,West,277,0.0,2.0,98,0.00,,,0.00,VWS V14.01,2013-05-11 05:50:00,
2013-05-11 01:55:00,44.7,44.2,29.91,West,277,0.0,2.0,98,0.00,,,0.00,VWS V14.01,2013-05-11 05:55:00,
2013-05-11 02:00:00,44.8,44.3,29.90,West,277,1.0,2.0,98,0.00,,,0.00,VWS V14.01,2013-05-11 06:00:00,
2013-05-11 02:05:00,44.8,44.3,29.90,West,277,0.0,2.0,98,0.00,,,0.00,VWS V14.01,2013-05-11 06:05:00,
2013-05-11 02:10:00,44.8,44.3,29.91,West,277,0.0,2.0,98,0.00,,,0.00,VWS V14.01,2013-05-11 06:10:00,
2013-05-11 02:15:00,44.9,44.4,29.91,West,277,0.0,0.0,98,0.00,,,0.00,VWS V14.01,2013-05-11 06:15:00,
2013-05-11 02:20:00,44.9,44.4,29.91,West,277,0.0,0.0,98,0.00,,,0.00,VWS V14.01,2013-05-11 06:20:00,
2013-05-11 02:25:00,44.9,44.4,29.91,West,277,1.0,1.0,98,0.00,,,0.00,VWS V14.01,2013-05-11 06:25:00,
2013-05-11 02:30:00,44.9,44.4,29.91,West,265,0.0,2.0,98,0.00,,,0.00,VWS V14.01,2013-05-11 06:30:00,
2013-05-11 02:35:00,44.9,44.4,29.91,West,265,1.0,2.0,98,0.00,,,0.00,VWS V14.01,2013-05-11 06:35:00,
2013-05-11 02:40:00,44.9,44.4,29.91,West,269,0.0,2.0,98,0.00,,,0.00,VWS V14.01,2013-05-11 06:40:00,
2013-05-11 02:45:00,44.9,44.4,29.91,WNW,300,0.0,2.0,98,0.00,,,0.00,VWS V14.01,2013-05-11 06:45:00,
2013-05-11 02:50:00,44.9,44.4,29.91,NW,304,0.0,2.0,98,0.00,,,0.00,VWS V14.01,2013-05-11 06:50:00,
2013-05-11 02:55:00,44.8,44.3,29.91,West,277,0.0,2.0,98,0.00,,,0.00,VWS V14.01,2013-05-11 06:55:00,
2013-05-11 03:00:00,44.6,44.1,29.91,WNW,290,0.0,5.0,98,0.00,,,0.00,VWS V14.01,2013-05-11 07:00:00,
2013-05-11 03:05:00,44.6,44.1,29.91,WNW,290,0.0,5.0,98,0.00,,,0.00,VWS V14.01,2013-05-11 07:05:00,
2013-05-11 03:10:00,44.5,44.0,29.92,WNW,290,0.0,3.0,98,0.00,,,0.00,VWS V14.01,2013-05-11 07:10:00,
2013-05-11 03:15:00,44.5,44.0,29.92,WNW,290,0.0,0.0,98,0.00,,,0.00,VWS V14.01,2013-05-11 07:15:00,
2013-05-11 03:20:00,44.5,44.0,29.92,WSW,258,0.0,3.0,98,0.00,,,0.00,VWS V14.01,2013-05-11 07:20:00,
2013-05-11 03:25:00,44.4,43.6,29.92,West,259,0.0,3.0,97,0.00,,,0.00,VWS V14.01,2013-05-11 07:25:00,
2013-05-11 03:30:00,44.4,43.6,29.92,West,259,0.0,3.0,97,0.00,,,0.00,VWS V14.01,2013-05-11 07:30:00,
2013-05-11 03:35:00,44.3,43.5,29.92,North,9,0.0,2.0,97,0.00,,,0.00,VWS V14.01,2013-05-11 07:35:00,
2013-05-11 03:40:00,44.2,43.4,29.92,West,277,0.0,2.0,97,0.00,,,0.00,VWS V14.01,2013-05-11 07:40:00,
2013-05-11 03:45:00,44.1,43.3,29.92,WSW,254,0.0,4.0,97,0.00,,,0.00,VWS V14.01,2013-05-11 07:45:00,
2013-05-11 03:50:00,44.1,43.6,29.92,WSW,254,0.0,4.0,98,0.00,,,0.00,VWS V14.01,2013-05-11 07:50:00,
2013-05-11 03:55:00,44.1,43.6,29.92,West,272,0.0,5.0,98,0.00,,,0.00,VWS V14.01,2013-05-11 07:55:00,
2013-05-11 04:00:00,44.0,43.2,29.92,West,279,0.0,5.0,97,0.00,,,0.00,VWS V14.01,2013-05-11 08:00:00,
2013-05-11 04:05:00,44.0,43.2,29.92,West,279,0.0,5.0,97,0.00,,,0.00,VWS V14.01,2013-05-11 08:05:00,
2013-05-11 04:10:00,44.0,43.5,29.92,West,279,0.0,2.0,98,0.00,,,0.00,VWS V14.01,2013-05-11 08:10:00,
2013-05-11 04:15:00,44.0,43.5,29.92,West,279,0.0,1.0,98,0.00,,,0.00,VWS V14.01,2013-05-11 08:15:00,
2013-05-11 04:20:00,44.0,43.2,29.92,West,274,2.0,2.0,97,0.00,,,0.00,VWS V14.01,2013-05-11 08:20:00,
2013-05-11 04:25:00,43.9,43.1,29.92,West,269,0.0,3.0,97,0.00,,,0.00,VWS V14.01,2013-05-11 08:25:00,
2013-05-11 04:30:00,43.8,43.0,29.92,West,269,0.0,3.0,97,0.00,,,0.00,VWS V14.01,2013-05-11 08:30:00,
2013-05-11 04:35:00,43.8,43.0,29.92,West,277,0.0,2.0,97,0.00,,,0.00,VWS V14.01,2013-05-11 08:35:00,
2013-05-11 04:40:00,43.7,42.9,29.92,West,270,0.0,3.0,97,0.00,,,0.00,VWS V14.01,2013-05-11 08:40:00,
2013-05-11 04:45:00,43.7,42.9,29.92,NW,324,0.0,3.0,97,0.00,,,0.00,VWS V14.01,2013-05-11 08:45:00,
2013-05-11 04:50:00,43.7,42.9,29.92,NW,324,0.0,2.0,97,0.00,,,0.00,VWS V14.01,2013-05-11 08:50:00,
2013-05-11 04:55:00,43.6,42.8,29.92,WNW,302,0.0,3.0,97,0.00,,,0.00,VWS V14.01,2013-05-11 08:55:00,
2013-05-11 05:00:00,43.6,42.8,29.92,SW,223,0.0,3.0,97,0.00,,,0.00,VWS V14.01,2013-05-11 09:00:00,
2013-05-11 05:05:00,43.4,42.6,29.92,SW,229,0.0,4.0,97,0.00,,,0.00,VWS V14.01,2013-05-11 09:05:00,
2013-05-11 05:10:00,43.3,42.5,29.92,SW,229,1.0,4.0,97,0.00,,,0.00,VWS V14.01,2013-05-11 09:10:00,
2013-05-11 05:15:00,43.3,42.5,29.92,WNW,289,0.0,5.0,97,0.00,,,0.00,VWS V14.01,2013-05-11 09:15:00,
2013-05-11 05:20:00,43.3,42.5,29.92,WNW,289,1.0,5.0,97,0.00,,,0.00,VWS V14.01,2013-05-11 09:20:00,
2013-05-11 05:25:00,43.3,42.5,29.92,SW,232,0.0,5.0,97,0.00,,,0.00,VWS V14.01,2013-05-11 09:25:00,
2013-05-11 05:30:00,43.2,42.4,29.92,SW,232,0.0,3.0,97,0.00,,,0.00,VWS V14.01,2013-05-11 09:30:00,
2013-05-11 05:35:00,43.2,42.4,29.92,NW,306,0.0,5.0,97,0.00,,,0.00,VWS V14.01,2013-05-11 09:35:00,
2013-05-11 05:40:00,43.0,42.2,29.92,NW,314,0.0,5.0,97,0.00,,,0.00,VWS V14.01,2013-05-11 09:40:00,
2013-05-11 05:45:00,43.0,42.2,29.92,SSW,210,2.0,5.0,97,0.00,,,0.00,VWS V14.01,2013-05-11 09:45:00,
2013-05-11 05:50:00,42.9,42.1,29.92,SW,226,0.0,4.0,97,0.00,,,0.00,VWS V14.01,2013-05-11 09:50:00,
2013-05-11 05:55:00,42.9,42.1,29.92,WNW,288,0.0,4.0,97,0.00,,,0.00,VWS V14.01,2013-05-11 09:55:00,
2013-05-11 06:00:00,43.0,42.2,29.91,WNW,288,0.0,4.0,97,0.00,,,0.00,VWS V14.01,2013-05-11 10:00:00,
2013-05-11 06:05:00,43.0,42.2,29.92,WNW,286,0.0,4.0,97,0.00,,,0.00,VWS V14.01,2013-05-11 10:05:00,
2013-05-11 06:10:00,43.0,42.2,29.92,WNW,286,0.0,4.0,97,0.00,,,0.00,VWS V14.01,2013-05-11 10:10:00,
2013-05-11 06:15:00,43.0,42.2,29.91,WNW,300,0.0,3.0,97,0.00,,,0.00,VWS V14.01,2013-05-11 10:15:00,
2013-05-11 06:20:00,43.1,42.3,29.91,WNW,300,0.0,3.0,97,0.00,,,0.00,VWS V14.01,2013-05-11 10:20:00,
2013-05-11 06:25:00,43.1,42.6,29.91,NW,311,4.0,4.0,98,0.00,,,0.00,VWS V14.01,2013-05-11 10:25:00,
2013-05-11 06:30:00,43.2,42.4,29.91,SW,218,0.0,4.0,97,0.00,,,0.00,VWS V14.01,2013-05-11 10:30:00,
2013-05-11 06:35:00,43.2,42.4,29.91,SW,235,0.0,4.0,97,0.00,,,0.00,VWS V14.01,2013-05-11 10:35:00,
2013-05-11 06:40:00,43.2,42.4,29.92,NW,314,0.0,4.0,97,0.00,,,0.00,VWS V14.01,2013-05-11 10:40:00,
2013-05-11 06:45:00,43.2,42.7,29.91,NW,314,0.0,3.0,98,0.00,,,0.00,VWS V14.01,2013-05-11 10:45:00,
2013-05-11 06:50:00,43.3,42.8,29.91,WNW,296,0.0,5.0,98,0.00,,,0.00,VWS V14.01,2013-05-11 10:50:00,
2013-05-11 06:55:00,43.3,42.8,29.91,West,268,0.0,5.0,98,0.00,,,0.00,VWS V14.01,2013-05-11 10:55:00,
2013-05-11 07:00:00,43.3,42.8,29.91,West,270,2.0,5.0,98,0.00,,,0.00,VWS V14.01,2013-05-11 11:00:00,
2013-05-11 07:05:00,43.4,42.9,29.92,WNW,282,0.0,4.0,98,0.00,,,0.00,VWS V14.01,2013-05-11 11:05:00,
2013-05-11 07:10:00,43.4,42.9,29.92,WNW,288,1.0,4.0,98,0.00,,,0.00,VWS V14.01,2013-05-11 11:10:00,
2013-05-11 07:15:00,43.3,42.8,29.92,West,280,1.0,4.0,98,0.00,,,0.00,VWS V14.01,2013-05-11 11:15:00,
2013-05-11 07:20:00,43.3,42.8,29.91,NW,321,0.0,4.0,98,0.00,,,0.00,VWS V14.01,2013-05-11 11:20:00,
2013-05-11 07:24:00,43.3,42.8,29.91,NW,310,0.0,4.0,98,0.00,,,0.00,VWS V14.01,2013-05-11 11:24:00,
2013-05-11 07:29:00,43.3,42.8,29.91,NW,304,0.0,3.0,98,0.00,,,0.00,VWS V14.01,2013-05-11 11:29:00,
2013-05-11 07:34:00,43.4,42.9,29.92,NW,304,1.0,2.0,98,0.00,,,0.00,VWS V14.01,2013-05-11 11:34:00,
2013-05-11 07:39:00,43.5,43.0,29.92,WNW,302,0.0,3.0,98,0.00,,,0.00,VWS V14.01,2013-05-11 11:39:00,
2013-05-11 07:44:00,43.6,43.1,29.91,WNW,302,0.0,3.0,98,0.00,,,0.00,VWS V14.01,2013-05-11 11:44:00,
2013-05-11 07:49:00,43.6,43.1,29.91,WNW,302,0.0,1.0,98,0.00,,,0.00,VWS V14.01,2013-05-11 11:49:00,
2013-05-11 07:54:00,43.6,43.1,29.91,WNW,302,0.0,1.0,98,0.00,,,0.00,VWS V14.01,2013-05-11 11:54:00,
2013-05-11 07:59:00,43.7,43.2,29.91,WNW,302,0.0,1.0,98,0.00,,,0.00,VWS V14.01,2013-05-11 11:59:00,
2013-05-11 08:04:00,43.7,43.2,29.91,WNW,302,0.0,1.0,98,0.00,,,0.00,VWS V14.01,2013-05-11 12:04:00,
2013-05-11 08:09:00,43.7,43.2,29.90,SSW,208,0.0,4.0,98,0.00,,,0.00,VWS V14.01,2013-05-11 12:09:00,
2013-05-11 08:14:00,43.7,43.2,29.90,NNW,338,0.0,4.0,98,0.00,,,0.00,VWS V14.01,2013-05-11 12:14:00,
2013-05-11 08:19:00,43.7,43.2,29.90,SW,215,0.0,4.0,98,0.00,,,0.00,VWS V14.01,2013-05-11 12:19:00,
2013-05-11 08:24:00,43.8,43.3,29.90,SW,215,0.0,3.0,98,0.00,,,0.00,VWS V14.01,2013-05-11 12:24:00,
2013-05-11 08:29:00,43.8,43.3,29.90,SSW,207,0.0,5.0,98,0.00,,,0.00,VWS V14.01,2013-05-11 12:29:00,
2013-05-11 08:34:00,43.8,43.3,29.90,SSW,207,0.0,5.0,98,0.00,,,0.00,VWS V14.01,2013-05-11 12:34:00,
2013-05-11 08:39:00,43.9,43.4,29.90,SSW,194,1.0,4.0,98,0.00,,,0.00,VWS V14.01,2013-05-11 12:39:00,
2013-05-11 08:44:00,44.0,43.5,29.90,WNW,298,0.0,6.0,98,0.00,,,0.00,VWS V14.01,2013-05-11 12:44:00,
2013-05-11 08:49:00,44.0,43.5,29.90,West,281,0.0,6.0,98,0.00,,,0.00,VWS V14.01,2013-05-11 12:49:00,
2013-05-11 08:54:00,44.0,43.5,29.90,SSW,198,2.0,6.0,98,0.00,,,0.00,VWS V14.01,2013-05-11 12:54:00,
2013-05-11 08:59:00,44.0,43.5,29.89,SSW,198,1.0,3.0,98,0.00,,,0.00,VWS V14.01,2013-05-11 12:59:00,
2013-05-11 09:04:00,44.1,43.6,29.89,SW,225,0.0,4.0,98,0.00,,,0.00,VWS V14.01,2013-05-11 13:04:00,
2013-05-11 09:09:00,44.2,43.7,29.89,SSW,212,1.0,4.0,98,0.00,,,0.00,VWS V14.01,2013-05-11 13:09:00,
2013-05-11 09:14:00,44.2,43.7,29.89,SSW,212,2.0,4.0,98,0.00,,,0.00,VWS V14.01,2013-05-11 13:14:00,
2013-05-11 09:19:00,44.3,43.8,29.90,SW,217,3.0,3.0,98,0.00,,,0.00,VWS V14.01,2013-05-11 13:19:00,
2013-05-11 09:24:00,44.4,43.9,29.90,SW,217,0.0,3.0,98,0.00,,,0.00,VWS V14.01,2013-05-11 13:24:00,
2013-05-11 09:29:00,44.5,44.0,29.89,SW,216,1.0,3.0,98,0.00,,,0.00,VWS V14.01,2013-05-11 13:29:00,
2013-05-11 09:34:00,44.7,44.2,29.89,SW,219,0.0,3.0,98,0.00,,,0.00,VWS V14.01,2013-05-11 13:34:00,
2013-05-11 09:39:00,44.7,44.2,29.90,SW,230,0.0,6.0,98,0.00,,,0.00,VWS V14.01,2013-05-11 13:39:00,
2013-05-11 09:44:00,44.8,44.3,29.90,West,267,1.0,6.0,98,0.00,,,0.00,VWS V14.01,2013-05-11 13:44:00,
2013-05-11 09:49:00,45.0,44.2,29.90,SW,225,0.0,4.0,97,0.00,,,0.00,VWS V14.01,2013-05-11 13:49:00,
2013-05-11 09:54:00,45.1,44.6,29.90,SW,225,1.0,4.0,98,0.00,,,0.00,VWS V14.01,2013-05-11 13:54:00,
2013-05-11 09:59:00,45.2,44.4,29.90,SW,223,3.0,4.0,97,0.00,,,0.00,VWS V14.01,2013-05-11 13:59:00,
2013-05-11 10:04:00,45.2,44.4,29.90,WNW,288,3.0,6.0,97,0.00,,,0.00,VWS V14.01,2013-05-11 14:04:00,
2013-05-11 10:09:00,45.3,44.5,29.90,NW,309,3.0,6.0,97,0.00,,,0.00,VWS V14.01,2013-05-11 14:09:00,
2013-05-11 10:14:00,45.4,44.6,29.90,SSW,213,0.0,7.0,97,0.00,,,0.00,VWS V14.01,2013-05-11 14:14:00,
2013-05-11 10:19:00,45.6,44.8,29.90,SW,227,1.0,7.0,97,0.00,,,0.00,VWS V14.01,2013-05-11 14:19:00,
2013-05-11 10:24:00,45.6,44.8,29.89,SW,222,3.0,6.0,97,0.00,,,0.00,VWS V14.01,2013-05-11 14:24:00,
2013-05-11 10:29:00,45.7,44.6,29.89,SW,222,0.0,6.0,96,0.00,,,0.00,VWS V14.01,2013-05-11 14:29:00,
2013-05-11 10:34:00,45.9,45.1,29.89,SSW,200,2.0,6.0,97,0.00,,,0.00,VWS V14.01,2013-05-11 14:34:00,
2013-05-11 10:39:00,45.9,44.8,29.88,SW,234,4.0,5.0,96,0.00,,,0.00,VWS V14.01,2013-05-11 14:39:00,
2013-05-11 10:44:00,46.0,44.9,29.88,SW,216,3.0,5.0,96,0.00,,,0.00,VWS V14.01,2013-05-11 14:44:00,
2013-05-11 10:49:00,46.1,45.0,29.88,South,186,2.0,5.0,96,0.00,,,0.00,VWS V14.01,2013-05-11 14:49:00,
2013-05-11 10:54:00,46.3,45.2,29.88,SW,221,2.0,5.0,96,0.00,,,0.00,VWS V14.01,2013-05-11 14:54:00,
2013-05-11 10:59:00,46.5,45.2,29.88,South,169,1.0,6.0,95,0.00,,,0.00,VWS V14.01,2013-05-11 14:59:00,
2013-05-11 11:04:00,46.7,45.3,29.88,WSW,244,1.0,6.0,95,0.00,,,0.00,VWS V14.01,2013-05-11 15:04:00,
2013-05-11 11:09:00,47.0,45.7,29.88,WSW,252,5.0,6.0,95,0.00,,,0.00,VWS V14.01,2013-05-11 15:09:00,
2013-05-11 11:14:00,47.0,45.4,29.89,West,270,3.0,7.0,94,0.00,,,0.00,VWS V14.01,2013-05-11 15:14:00,
2013-05-11 11:19:00,47.1,45.5,29.89,South,170,2.0,8.0,94,0.00,,,0.00,VWS V14.01,2013-05-11 15:19:00,
2013-05-11 11:24:00,47.2,45.6,29.88,WNW,286,1.0,8.0,94,0.00,,,0.00,VWS V14.01,2013-05-11 15:24:00,
2013-05-11 11:29:00,47.5,45.9,29.88,SSW,203,0.0,8.0,94,0.00,,,0.00,VWS V14.01,2013-05-11 15:29:00,
2013-05-11 11:34:00,47.8,46.2,29.88,South,185,2.0,5.0,94,0.00,,,0.00,VWS V14.01,2013-05-11 15:34:00,
2013-05-11 11:39:00,47.8,45.9,29.88,SSW,206,0.0,9.0,93,0.00,,,0.00,VWS V14.01,2013-05-11 15:39:00,
2013-05-11 11:44:00,48.1,46.2,29.88,West,259,3.0,9.0,93,0.00,,,0.00,VWS V14.01,2013-05-11 15:44:00,
2013-05-11 11:49:00,48.4,46.5,29.88,SSE,161,6.0,9.0,93,0.00,,,0.00,VWS V14.01,2013-05-11 15:49:00,
2013-05-11 11:54:00,48.5,46.3,29.88,WSW,250,3.0,8.0,92,0.00,,,0.00,VWS V14.01,2013-05-11 15:54:00,
2013-05-11 11:59:00,49.0,46.8,29.87,SSW,210,3.0,7.0,92,0.00,,,0.00,VWS V14.01,2013-05-11 15:59:00,
2013-05-11 12:04:00,49.1,46.6,29.87,SSW,194,3.0,6.0,91,0.00,,,0.00,VWS V14.01,2013-05-11 16:04:00,
2013-05-11 12:09:00,49.3,46.8,29.86,SSW,195,1.0,6.0,91,0.00,,,0.00,VWS V14.01,2013-05-11 16:09:00,
2013-05-11 12:14:00,50.0,47.5,29.86,South,191,1.0,5.0,91,0.00,,,0.00,VWS V14.01,2013-05-11 16:14:00,
2013-05-11 12:19:00,51.0,47.6,29.86,SW,228,2.0,9.0,88,0.00,,,0.00,VWS V14.01,2013-05-11 16:19:00,
2013-05-11 12:24:00,51.4,47.4,29.86,SW,217,1.0,9.0,86,0.00,,,0.00,VWS V14.01,2013-05-11 16:24:00,
2013-05-11 12:29:00,51.3,47.0,29.86,SW,230,7.0,9.0,85,0.00,,,0.00,VWS V14.01,2013-05-11 16:29:00,
2013-05-11 12:34:00,51.7,47.7,29.85,WSW,239,1.0,8.0,86,0.00,,,0.00,VWS V14.01,2013-05-11 16:34:00,
2013-05-11 12:39:00,52.0,47.6,29.85,SSW,206,0.0,11.0,85,0.00,,,0.00,VWS V14.01,2013-05-11 16:39:00,
2013-05-11 12:44:00,53.0,48.3,29.85,SW,226,4.0,11.0,84,0.00,,,0.00,VWS V14.01,2013-05-11 16:44:00,
2013-05-11 12:49:00,54.7,49.7,29.84,South,175,7.0,9.0,83,0.00,,,0.00,VWS V14.01,2013-05-11 16:49:00,
2013-05-11 12:53:00,54.6,48.9,29.84,South,169,0.0,10.0,81,0.00,,,0.00,VWS V14.01,2013-05-11 16:53:00,
2013-05-11 12:58:00,54.8,48.8,29.84,SW,221,2.0,12.0,80,0.00,,,0.00,VWS V14.01,2013-05-11 16:58:00,
2013-05-11 13:03:00,54.6,48.9,29.83,SW,230,2.0,12.0,81,0.00,,,0.00,VWS V14.01,2013-05-11 17:03:00,
2013-05-11 13:08:00,56.0,50.3,29.83,SW,236,3.0,12.0,81,0.00,,,0.00,VWS V14.01,2013-05-11 17:08:00,
2013-05-11 13:13:00,56.6,50.5,29.82,WSW,258,5.0,7.0,80,0.00,,,0.00,VWS V14.01,2013-05-11 17:13:00,
2013-05-11 13:18:00,56.4,49.3,29.82,SSW,192,7.0,7.0,77,0.00,,,0.00,VWS V14.01,2013-05-11 17:18:00,
2013-05-11 13:23:00,56.0,49.9,29.82,South,173,3.0,7.0,80,0.00,,,0.00,VWS V14.01,2013-05-11 17:23:00,
2013-05-11 13:28:00,54.9,48.5,29.82,SW,230,2.0,10.0,79,0.00,,,0.00,VWS V14.01,2013-05-11 17:28:00,
2013-05-11 13:33:00,53.9,47.9,29.83,West,267,5.0,12.0,80,0.00,,,0.00,VWS V14.01,2013-05-11 17:33:00,
2013-05-11 13:38:00,53.5,48.2,29.83,SSW,207,7.0,12.0,82,0.00,,,0.00,VWS V14.01,2013-05-11 17:38:00,
2013-05-11 13:43:00,53.3,48.3,29.83,SW,223,3.0,12.0,83,0.00,,,0.00,VWS V14.01,2013-05-11 17:43:00,
2013-05-11 13:48:00,53.2,48.5,29.83,SW,234,2.0,9.0,84,0.00,,,0.00,VWS V14.01,2013-05-11 17:48:00,
2013-05-11 13:53:00,53.5,49.1,29.83,WSW,246,2.0,9.0,85,0.00,,,0.00,VWS V14.01,2013-05-11 17:53:00,
2013-05-11 13:58:00,53.7,49.0,29.83,South,179,0.0,8.0,84,0.00,,,0.00,VWS V14.01,2013-05-11 17:58:00,
2013-05-11 14:03:00,53.9,49.2,29.82,WSW,242,3.0,6.0,84,0.00,,,0.00,VWS V14.01,2013-05-11 18:03:00,
2013-05-11 14:08:00,53.9,49.2,29.82,SW,231,0.0,9.0,84,0.00,,,0.00,VWS V14.01,2013-05-11 18:08:00,
2013-05-11 14:13:00,54.0,49.3,29.82,SSE,159,3.0,9.0,84,0.00,,,0.00,VWS V14.01,2013-05-11 18:13:00,
2013-05-11 14:18:00,54.0,49.3,29.82,SW,221,0.0,9.0,84,0.00,,,0.00,VWS V14.01,2013-05-11 18:18:00,
2013-05-11 14:23:00,54.1,49.7,29.82,SW,225,2.0,9.0,85,0.00,,,0.00,VWS V14.01,2013-05-11 18:23:00,
2013-05-11 14:28:00,54.2,49.8,29.82,South,183,2.0,7.0,85,0.00,,,0.00,VWS V14.01,2013-05-11 18:28:00,
2013-05-11 14:33:00,54.1,49.7,29.82,WSW,237,3.0,9.0,85,0.00,,,0.00,VWS V14.01,2013-05-11 18:33:00,
2013-05-11 14:38:00,54.0,49.6,29.83,SSW,202,5.0,9.0,85,0.00,,,0.00,VWS V14.01,2013-05-11 18:38:00,
2013-05-11 14:43:00,54.1,50.0,29.82,SW,236,1.0,8.0,86,0.00,,,0.00,VWS V14.01,2013-05-11 18:43:00,
2013-05-11 14:48:00,54.2,50.1,29.82,SW,234,2.0,8.0,86,0.00,,,0.00,VWS V14.01,2013-05-11 18:48:00,
2013-05-11 14:53:00,54.3,50.2,29.82,SSW,206,0.0,8.0,86,0.00,,,0.00,VWS V14.01,2013-05-11 18:53:00,
2013-05-11 14:58:00,54.4,50.3,29.82,SW,231,2.0,7.0,86,0.00,,,0.00,VWS V14.01,2013-05-11 18:58:00,
2013-05-11 15:03:00,54.4,50.3,29.82,SW,229,3.0,7.0,86,0.00,,,0.00,VWS V14.01,2013-05-11 19:03:00,
2013-05-11 15:08:00,54.4,50.6,29.82,South,187,2.0,7.0,87,0.00,,,0.00,VWS V14.01,2013-05-11 19:08:00,
2013-05-11 15:13:00,54.4,50.6,29.83,SW,221,4.0,7.0,87,0.00,,,0.00,VWS V14.01,2013-05-11 19:13:00,
2013-05-11 15:18:00,54.5,51.0,29.86,NNW,347,6.0,9.0,88,0.00,,,0.00,VWS V14.01,2013-05-11 19:18:00,
2013-05-11 15:23:00,51.6,44.6,29.87,NNW,346,4.0,16.0,77,0.00,,,0.00,VWS V14.01,2013-05-11 19:23:00,
2013-05-11 15:28:00,49.3,43.1,29.87,NNW,343,7.0,16.0,79,0.00,,,0.00,VWS V14.01,2013-05-11 19:28:00,
2013-05-11 15:33:00,47.8,41.9,29.88,NNW,347,7.0,16.0,80,0.00,,,0.00,VWS V14.01,2013-05-11 19:33:00,
2013-05-11 15:38:00,47.0,41.8,29.89,NW,317,1.0,18.0,82,0.00,,,0.00,VWS V14.01,2013-05-11 19:38:00,
2013-05-11 15:43:00,46.6,41.4,29.88,NW,311,3.0,18.0,82,0.00,,,0.00,VWS V14.01,2013-05-11 19:43:00,
2013-05-11 15:48:00,46.1,40.6,29.89,WNW,284,4.0,18.0,81,0.00,,,0.00,VWS V14.01,2013-05-11 19:48:00,
2013-05-11 15:53:00,46.5,40.7,29.89,West,279,4.0,15.0,80,0.00,,,0.00,VWS V14.01,2013-05-11 19:53:00,
2013-05-11 15:58:00,46.3,40.5,29.90,SW,227,7.0,14.0,80,0.00,,,0.00,VWS V14.01,2013-05-11 19:58:00,
2013-05-11 16:03:00,45.8,39.7,29.89,WNW,299,6.0,12.0,79,0.00,,,0.00,VWS V14.01,2013-05-11 20:03:00,
2013-05-11 16:08:00,45.4,39.3,29.90,WSW,252,7.0,16.0,79,0.00,,,0.00,VWS V14.01,2013-05-11 20:08:00,
2013-05-11 16:13:00,45.3,39.2,29.89,North,360,2.0,16.0,79,0.00,,,0.00,VWS V14.01,2013-05-11 20:13:00,
2013-05-11 16:18:00,45.6,39.8,29.90,NNW,327,0.0,11.0,80,0.00,,,0.00,VWS V14.01,2013-05-11 20:18:00,
2013-05-11 16:23:00,45.8,39.7,29.90,North,5,2.0,11.0,79,0.00,,,0.00,VWS V14.01,2013-05-11 20:23:00,
2013-05-11 16:28:00,45.7,38.9,29.90,NNE,24,2.0,10.0,77,0.00,,,0.00,VWS V14.01,2013-05-11 20:28:00,
2013-05-11 16:33:00,45.4,39.0,29.90,NNW,346,4.0,10.0,78,0.00,,,0.00,VWS V14.01,2013-05-11 20:33:00,
2013-05-11 16:38:00,45.4,39.0,29.90,North,360,5.0,10.0,78,0.00,,,0.00,VWS V14.01,2013-05-11 20:38:00,
2013-05-11 16:43:00,45.5,39.4,29.90,ESE,109,4.0,10.0,79,0.00,,,0.00,VWS V14.01,2013-05-11 20:43:00,
2013-05-11 16:48:00,45.7,39.6,29.89,NE,38,3.0,10.0,79,0.00,,,0.00,VWS V14.01,2013-05-11 20:48:00,
2013-05-11 16:53:00,45.8,39.3,29.89,NW,311,2.0,7.0,78,0.00,,,0.00,VWS V14.01,2013-05-11 20:53:00,
2013-05-11 16:58:00,46.5,39.7,29.89,NNW,348,4.0,8.0,77,0.00,,,0.00,VWS V14.01,2013-05-11 20:58:00,
2013-05-11 17:03:00,47.4,40.2,29.89,WNW,295,3.0,8.0,76,0.00,,,0.00,VWS V14.01,2013-05-11 21:03:00,
2013-05-11 17:08:00,47.4,39.5,29.90,West,266,6.0,10.0,74,0.00,,,0.00,VWS V14.01,2013-05-11 21:08:00,
2013-05-11 17:13:00,47.4,39.5,29.90,North,355,2.0,10.0,74,0.00,,,0.00,VWS V14.01,2013-05-11 21:13:00,
2013-05-11 17:18:00,47.2,39.7,29.89,WNW,288,2.0,10.0,75,0.00,,,0.00,VWS V14.01,2013-05-11 21:18:00,
2013-05-11 17:23:00,47.4,40.2,29.90,NNE,30,3.0,8.0,76,0.00,,,0.00,VWS V14.01,2013-05-11 21:23:00,
2013-05-11 17:28:00,47.8,39.9,29.90,ENE,63,3.0,8.0,74,0.00,,,0.00,VWS V14.01,2013-05-11 21:28:00,
2013-05-11 17:33:00,48.3,40.8,29.90,North,11,4.0,8.0,75,0.00,,,0.00,VWS V14.01,2013-05-11 21:33:00,
2013-05-11 17:38:00,48.7,40.5,29.90,NNW,338,3.0,10.0,73,0.00,,,0.00,VWS V14.01,2013-05-11 21:38:00,
2013-05-11 17:43:00,49.0,40.7,29.90,West,278,1.0,10.0,73,0.00,,,0.00,VWS V14.01,2013-05-11 21:43:00,
2013-05-11 17:48:00,49.3,41.0,29.91,NW,306,0.0,7.0,73,0.00,,,0.00,VWS V14.01,2013-05-11 21:48:00,
2013-05-11 17:53:00,49.6,41.0,29.91,North,349,3.0,7.0,72,0.00,,,0.00,VWS V14.01,2013-05-11 21:53:00,
2013-05-11 17:58:00,49.4,40.4,29.91,West,271,1.0,6.0,71,0.00,,,0.00,VWS V14.01,2013-05-11 21:58:00,
2013-05-11 18:03:00,49.2,40.6,29.91,NNE,26,3.0,6.0,72,0.00,,,0.00,VWS V14.01,2013-05-11 22:03:00,
2013-05-11 18:08:00,49.5,40.9,29.91,NNW,346,1.0,8.0,72,0.00,,,0.00,VWS V14.01,2013-05-11 22:08:00,
2013-05-11 18:13:00,49.6,40.2,29.91,West,277,3.0,10.0,70,0.00,,,0.00,VWS V14.01,2013-05-11 22:13:00,
2013-05-11 18:18:00,49.3,39.9,29.91,NNW,342,1.0,13.0,70,0.00,,,0.00,VWS V14.01,2013-05-11 22:18:00,
2013-05-11 18:23:00,48.9,39.9,29.92,North,360,0.0,13.0,71,0.00,,,0.00,VWS V14.01,2013-05-11 22:23:00,
2013-05-11 18:28:00,48.7,40.1,29.92,North,360,4.0,13.0,72,0.00,,,0.00,VWS V14.01,2013-05-11 22:28:00,
2013-05-11 18:33:00,48.6,39.3,29.92,NE,44,2.0,5.0,70,0.00,,,0.00,VWS V14.01,2013-05-11 22:33:00,
2013-05-11 18:38:00,48.7,39.7,29.92,NW,310,2.0,6.0,71,0.00,,,0.00,VWS V14.01,2013-05-11 22:38:00,
2013-05-11 18:43:00,48.8,39.8,29.92,NW,325,4.0,6.0,71,0.00,,,0.00,VWS V14.01,2013-05-11 22:43:00,
2013-05-11 18:48:00,48.9,39.2,29.92,NNE,29,1.0,7.0,69,0.00,,,0.00,VWS V14.01,2013-05-11 22:48:00,
2013-05-11 18:53:00,48.8,38.7,29.92,North,360,0.0,7.0,68,0.00,,,0.00,VWS V14.01,2013-05-11 22:53:00,
2013-05-11 18:58:00,48.7,38.6,29.93,West,276,1.0,6.0,68,0.00,,,0.00,VWS V14.01,2013-05-11 22:58:00,
2013-05-11 19:03:00,48.4,38.3,29.93,NW,304,2.0,6.0,68,0.00,,,0.00,VWS V14.01,2013-05-11 23:03:00,
2013-05-11 19:07:00,48.1,38.0,29.93,NW,324,3.0,5.0,68,0.00,,,0.00,VWS V14.01,2013-05-11 23:07:00,
2013-05-11 19:12:00,47.8,37.8,29.93,NNW,344,1.0,5.0,68,0.00,,,0.00,VWS V14.01,2013-05-11 23:12:00,
2013-05-11 19:17:00,47.6,38.0,29.93,NNE,32,0.0,4.0,69,0.00,,,0.00,VWS V14.01,2013-05-11 23:17:00,
2013-05-11 19:22:00,47.6,38.7,29.93,NW,323,2.0,3.0,71,0.00,,,0.00,VWS V14.01,2013-05-11 23:22:00,
2013-05-11 19:27:00,47.7,38.4,29.93,NNW,348,0.0,3.0,70,0.00,,,0.00,VWS V14.01,2013-05-11 23:27:00,
2013-05-11 19:32:00,47.8,38.1,29.93,North,360,2.0,4.0,69,0.00,,,0.00,VWS V14.01,2013-05-11 23:32:00,
2013-05-11 19:37:00,47.8,38.1,29.93,WSW,254,0.0,4.0,69,0.00,,,0.00,VWS V14.01,2013-05-11 23:37:00,
2013-05-11 19:42:00,47.8,38.5,29.93,WSW,258,0.0,4.0,70,0.00,,,0.00,VWS V14.01,2013-05-11 23:42:00,
2013-05-11 19:47:00,47.7,38.0,29.93,NE,48,1.0,4.0,69,0.00,,,0.00,VWS V14.01,2013-05-11 23:47:00,
2013-05-11 19:52:00,47.7,38.4,29.94,West,280,0.0,4.0,70,0.00,,,0.00,VWS V14.01,2013-05-11 23:52:00,
2013-05-11 19:57:00,47.6,38.0,29.94,WNW,297,1.0,3.0,69,0.00,,,0.00,VWS V14.01,2013-05-11 23:57:00,
2013-05-11 20:02:00,47.6,37.6,29.94,NNE,32,4.0,4.0,68,0.00,,,0.00,VWS V14.01,2013-05-12 00:02:00,
2013-05-11 20:07:00,47.5,37.1,29.94,NW,325,2.0,4.0,67,0.00,,,0.00,VWS V14.01,2013-05-12 00:07:00,
2013-05-11 20:12:00,47.3,36.9,29.95,NW,311,0.0,5.0,67,0.00,,,0.00,VWS V14.01,2013-05-12 00:12:00,
2013-05-11 20:17:00,47.1,37.1,29.95,WNW,301,0.0,5.0,68,0.00,,,0.00,VWS V14.01,2013-05-12 00:17:00,
2013-05-11 20:22:00,46.9,36.9,29.96,NW,323,1.0,5.0,68,0.00,,,0.00,VWS V14.01,2013-05-12 00:22:00,
2013-05-11 20:27:00,46.5,36.9,29.96,WNW,298,0.0,3.0,69,0.00,,,0.00,VWS V14.01,2013-05-12 00:27:00,
2013-05-11 20:32:00,46.2,36.6,29.96,NE,49,0.0,5.0,69,0.00,,,0.00,VWS V14.01,2013-05-12 00:32:00,
2013-05-11 20:37:00,46.1,36.9,29.96,WNW,300,0.0,5.0,70,0.00,,,0.00,VWS V14.01,2013-05-12 00:37:00,
2013-05-11 20:42:00,46.0,37.1,29.96,WNW,286,0.0,3.0,71,0.00,,,0.00,VWS V14.01,2013-05-12 00:42:00,
2013-05-11 20:47:00,45.8,37.0,29.96,NW,313,2.0,2.0,71,0.00,,,0.00,VWS V14.01,2013-05-12 00:47:00,
2013-05-11 20:52:00,45.8,37.0,29.96,North,350,2.0,5.0,71,0.00,,,0.00,VWS V14.01,2013-05-12 00:52:00,
2013-05-11 20:57:00,45.5,36.7,29.96,NW,316,4.0,5.0,71,0.00,,,0.00,VWS V14.01,2013-05-12 00:57:00,
2013-05-11 21:02:00,45.2,36.7,29.96,WNW,303,0.0,4.0,72,0.00,,,0.00,VWS V14.01,2013-05-12 01:02:00,
2013-05-11 21:07:00,45.0,36.5,29.97,West,279,0.0,4.0,72,0.00,,,0.00,VWS V14.01,2013-05-12 01:07:00,
2013-05-11 21:12:00,44.8,36.7,29.97,West,281,0.0,4.0,73,0.00,,,0.00,VWS V14.01,2013-05-12 01:12:00,
2013-05-11 21:17:00,44.5,36.4,29.97,West,263,0.0,4.0,73,0.00,,,0.00,VWS V14.01,2013-05-12 01:17:00,
2013-05-11 21:22:00,44.2,36.5,29.97,NW,306,0.0,6.0,74,0.00,,,0.00,VWS V14.01,2013-05-12 01:22:00,
2013-05-11 21:27:00,44.0,36.6,29.97,NW,306,0.0,6.0,75,0.00,,,0.00,VWS V14.01,2013-05-12 01:27:00,
2013-05-11 21:32:00,43.7,36.6,29.98,WNW,284,0.0,2.0,76,0.00,,,0.00,VWS V14.01,2013-05-12 01:32:00,
2013-05-11 21:37:00,43.4,36.3,29.97,NW,315,1.0,2.0,76,0.00,,,0.00,VWS V14.01,2013-05-12 01:37:00,
2013-05-11 21:42:00,43.2,36.5,29.97,NW,315,0.0,2.0,77,0.00,,,0.00,VWS V14.01,2013-05-12 01:42:00,
2013-05-11 21:47:00,42.9,36.5,29.98,NW,315,1.0,2.0,78,0.00,,,0.00,VWS V14.01,2013-05-12 01:47:00,
2013-05-11 21:52:00,42.7,36.7,29.98,NNW,333,0.0,3.0,79,0.00,,,0.00,VWS V14.01,2013-05-12 01:52:00,
2013-05-11 21:57:00,42.5,36.5,29.98,NNW,337,0.0,3.0,79,0.00,,,0.00,VWS V14.01,2013-05-12 01:57:00,
2013-05-11 22:02:00,42.3,36.6,29.98,NNW,337,0.0,1.0,80,0.00,,,0.00,VWS V14.01,2013-05-12 02:02:00,
2013-05-11 22:07:00,42.1,36.7,29.98,NNW,337,0.0,1.0,81,0.00,,,0.00,VWS V14.01,2013-05-12 02:07:00,
2013-05-11 22:12:00,41.8,36.4,29.98,NNW,337,0.0,0.0,81,0.00,,,0.00,VWS V14.01,2013-05-12 02:12:00,
2013-05-11 22:17:00,41.5,36.4,29.98,NNW,337,0.0,0.0,82,0.00,,,0.00,VWS V14.01,2013-05-12 02:17:00,
2013-05-11 22:22:00,41.3,36.2,29.98,NNW,337,0.0,0.0,82,0.00,,,0.00,VWS V14.01,2013-05-12 02:22:00,
2013-05-11 22:27:00,41.0,36.2,29.98,NNW,337,0.0,0.0,83,0.00,,,0.00,VWS V14.01,2013-05-12 02:27:00,
2013-05-11 22:32:00,40.6,35.8,29.98,NNW,337,0.0,0.0,83,0.00,,,0.00,VWS V14.01,2013-05-12 02:32:00,
2013-05-11 22:37:00,40.2,35.8,29.98,NNW,337,0.0,0.0,84,0.00,,,0.00,VWS V14.01,2013-05-12 02:37:00,
2013-05-11 22:42:00,39.8,35.7,29.98,NNW,337,0.0,0.0,85,0.00,,,0.00,VWS V14.01,2013-05-12 02:42:00,
2013-05-11 22:47:00,39.4,35.6,29.98,NNW,337,0.0,0.0,86,0.00,,,0.00,VWS V14.01,2013-05-12 02:47:00,
2013-05-11 22:52:00,39.2,35.4,29.99,NNW,337,0.0,0.0,86,0.00,,,0.00,VWS V14.01,2013-05-12 02:52:00,
2013-05-11 22:57:00,38.9,35.1,29.99,NNW,337,0.0,0.0,86,0.00,,,0.00,VWS V14.01,2013-05-12 02:57:00,
2013-05-11 23:02:00,38.7,35.2,29.98,NNW,337,0.0,0.0,87,0.00,,,0.00,VWS V14.01,2013-05-12 03:02:00,
2013-05-11 23:07:00,38.4,35.2,29.99,NNW,337,0.0,0.0,88,0.00,,,0.00,VWS V14.01,2013-05-12 03:07:00,
2013-05-11 23:12:00,38.2,35.0,29.99,NNW,337,0.0,0.0,88,0.00,,,0.00,VWS V14.01,2013-05-12 03:12:00,
2013-05-11 23:17:00,38.1,35.2,29.98,NNW,337,0.0,0.0,89,0.00,,,0.00,VWS V14.01,2013-05-12 03:17:00,
2013-05-11 23:22:00,37.9,35.0,29.99,NNW,337,0.0,0.0,89,0.00,,,0.00,VWS V14.01,2013-05-12 03:22:00,
2013-05-11 23:27:00,37.7,35.0,29.99,NNW,337,0.0,0.0,90,0.00,,,0.00,VWS V14.01,2013-05-12 03:27:00,
2013-05-11 23:32:00,37.5,34.8,29.99,NNW,337,0.0,0.0,90,0.00,,,0.00,VWS V14.01,2013-05-12 03:32:00,
2013-05-11 23:37:00,37.3,34.6,29.99,NNW,337,0.0,0.0,90,0.00,,,0.00,VWS V14.01,2013-05-12 03:37:00,
2013-05-11 23:42:00,37.0,34.3,29.99,NNW,337,0.0,0.0,90,0.00,,,0.00,VWS V14.01,2013-05-12 03:42:00,
2013-05-11 23:47:00,36.9,34.5,29.99,NNW,337,0.0,0.0,91,0.00,,,0.00,VWS V14.01,2013-05-12 03:47:00,
2013-05-11 23:52:00,36.7,34.3,29.99,NNW,337,0.0,0.0,91,0.00,,,0.00,VWS V14.01,2013-05-12 03:52:00,
2013-05-11 23:57:00,36.6,34.2,29.99,NNW,337,0.0,0.0,91,0.00,,,0.00,VWS V14.01,2013-05-12 03:57:00,